createdAt,value
2017-03-25T00:00:34.313Z,85.6
2017-03-25T00:01:36.164Z,85.4
2017-03-25T00:02:37.967Z,85.5
2017-03-25T00:03:39.775Z,85.5
2017-03-25T00:04:41.842Z,85.7
2017-03-25T00:05:43.642Z,85.9
2017-03-25T00:06:45.438Z,85.1
2017-03-25T00:07:47.243Z,85.2
2017-03-25T00:08:49.041Z,85.4
2017-03-25T00:09:50.843Z,85.7
2017-03-25T00:10:52.645Z,85.4
2017-03-25T00:11:54.455Z,85.5
2017-03-25T00:12:56.261Z,85.6
2017-03-25T00:13:58.363Z,85.5
2017-03-25T00:15:00.347Z,85.4
2017-03-25T00:16:02.739Z,85
2017-03-25T00:17:04.546Z,84.7
2017-03-25T00:18:06.532Z,84.9
2017-03-25T00:19:08.673Z,84.9
2017-03-25T00:20:10.469Z,85
2017-03-25T00:21:12.612Z,85.2
2017-03-25T00:22:14.410Z,85.3
2017-03-25T00:23:16.211Z,85.2
2017-03-25T00:24:18.360Z,85.1
2017-03-25T00:25:20.173Z,85.3
2017-03-25T00:26:22.219Z,84.8
2017-03-25T00:27:24.021Z,84.9
2017-03-25T00:28:25.818Z,84.5
2017-03-25T00:29:27.619Z,85.1
2017-03-25T00:30:29.421Z,85.2
2017-03-25T00:31:31.218Z,84.8
2017-03-25T00:32:33.809Z,85.1
2017-03-25T00:33:35.607Z,85.3
2017-03-25T00:34:37.412Z,85.2
2017-03-25T00:35:39.219Z,85.6
2017-03-25T00:36:41.022Z,85.9
2017-03-25T00:37:42.822Z,85.9
2017-03-25T00:38:44.622Z,85.7
2017-03-25T00:39:46.424Z,85.9
2017-03-25T00:40:48.227Z,85.9
2017-03-25T00:41:50.024Z,85.7
2017-03-25T00:42:52.221Z,85.9
2017-03-25T00:43:54.016Z,85.4
2017-03-25T00:44:55.815Z,85.5
2017-03-25T00:45:57.607Z,85.3
2017-03-25T00:46:59.447Z,85
2017-03-25T00:48:01.238Z,84.9
2017-03-25T00:49:03.285Z,84.9
2017-03-25T00:50:05.086Z,84.5
2017-03-25T00:51:07.138Z,84.4
2017-03-25T00:52:09.104Z,84.9
2017-03-25T00:53:11.048Z,85
2017-03-25T00:54:12.854Z,85.1
2017-03-25T00:55:14.651Z,85.1
2017-03-25T00:56:16.450Z,85
2017-03-25T00:57:18.260Z,84.6
2017-03-25T00:58:20.066Z,84.1
2017-03-25T00:59:22.172Z,84.2
2017-03-25T01:00:23.981Z,84.3
2017-03-25T01:01:25.774Z,83.7
2017-03-25T01:02:27.584Z,83.5
2017-03-25T01:03:29.384Z,83.2
2017-03-25T01:04:31.189Z,82.7
2017-03-25T01:05:33.550Z,83.1
2017-03-25T01:06:35.544Z,83.1
2017-03-25T01:07:37.491Z,83.3
2017-03-25T01:08:39.292Z,83.2
2017-03-25T01:09:41.341Z,83.5
2017-03-25T01:10:43.575Z,83.4
2017-03-25T01:11:45.376Z,83.4
2017-03-25T01:12:47.169Z,83.9
2017-03-25T01:13:48.967Z,83.9
2017-03-25T01:14:50.763Z,84.4
2017-03-25T01:15:52.720Z,83.8
2017-03-25T01:16:54.515Z,83.9
2017-03-25T01:17:56.312Z,83.4
2017-03-25T01:18:58.117Z,83.5
2017-03-25T01:20:00.385Z,83.2
2017-03-25T01:21:02.783Z,83.5
2017-03-25T01:22:04.863Z,83.7
2017-03-25T01:23:06.657Z,83.9
2017-03-25T01:24:08.466Z,82.8
2017-03-25T01:25:10.263Z,83.1
2017-03-25T01:26:12.347Z,83.4
2017-03-25T01:27:14.488Z,83.8
2017-03-25T01:28:16.296Z,83.9
2017-03-25T01:29:18.093Z,83.9
2017-03-25T01:30:19.898Z,83.5
2017-03-25T01:31:21.990Z,83.7
2017-03-25T01:32:23.917Z,83.8
2017-03-25T01:33:25.711Z,83.3
2017-03-25T01:34:27.510Z,83.2
2017-03-25T01:35:29.315Z,83
2017-03-25T01:36:31.123Z,82
2017-03-25T01:37:33.200Z,81.5
2017-03-25T01:38:35.185Z,81
2017-03-25T01:39:36.992Z,80.7
2017-03-25T01:40:38.801Z,80.7
2017-03-25T01:41:40.603Z,81.2
2017-03-25T01:42:42.734Z,81.2
2017-03-25T01:43:44.549Z,81.4
2017-03-25T01:44:46.344Z,81.9
2017-03-25T01:45:48.154Z,82
2017-03-25T01:46:49.949Z,81.9
2017-03-25T01:47:52.155Z,82.8
2017-03-25T01:48:53.957Z,83.3
2017-03-25T01:49:55.762Z,83.9
2017-03-25T01:50:57.559Z,84.3
2017-03-25T01:51:59.369Z,83.9
2017-03-25T01:53:01.174Z,84.4
2017-03-25T01:54:03.181Z,84.3
2017-03-25T01:55:05.242Z,84.6
2017-03-25T01:56:07.037Z,84.1
2017-03-25T01:57:09.176Z,83.6
2017-03-25T01:58:10.980Z,83
2017-03-25T01:59:13.035Z,83.7
2017-03-25T02:00:14.831Z,84.3
2017-03-25T02:01:16.976Z,84.6
2017-03-25T02:02:18.809Z,84.5
2017-03-25T02:03:20.609Z,84.9
2017-03-25T02:04:23.055Z,84.8
2017-03-25T02:05:24.860Z,85.1
2017-03-25T02:06:26.992Z,85
2017-03-25T02:07:28.790Z,85.1
2017-03-25T02:08:30.588Z,85.3
2017-03-25T02:09:32.826Z,84.9
2017-03-25T02:10:34.975Z,84.8
2017-03-25T02:11:36.778Z,84.9
2017-03-25T02:12:38.578Z,83.9
2017-03-25T02:13:40.373Z,84.2
2017-03-25T02:14:42.311Z,83.8
2017-03-25T02:15:44.203Z,83.4
2017-03-25T02:16:46.351Z,83.9
2017-03-25T02:17:48.150Z,83.6
2017-03-25T02:18:49.948Z,83.9
2017-03-25T02:19:52.291Z,83.5
2017-03-25T02:20:54.431Z,83.9
2017-03-25T02:21:56.475Z,83.9
2017-03-25T02:22:58.435Z,84.4
2017-03-25T02:24:00.386Z,84
2017-03-25T02:25:02.194Z,84.6
2017-03-25T02:26:03.994Z,85.1
2017-03-25T02:27:05.795Z,84.9
2017-03-25T02:28:07.589Z,85
2017-03-25T02:29:09.393Z,84
2017-03-25T02:30:11.198Z,84.6
2017-03-25T02:31:13.341Z,84.9
2017-03-25T02:32:15.484Z,84.9
2017-03-25T02:33:17.284Z,85.3
2017-03-25T02:34:19.086Z,85.2
2017-03-25T02:35:20.879Z,85.6
2017-03-25T02:36:22.677Z,86.5
2017-03-25T02:37:24.479Z,86.4
2017-03-25T02:38:26.286Z,86.1
2017-03-25T02:39:28.252Z,86.5
2017-03-25T02:40:30.284Z,86.6
2017-03-25T02:41:32.076Z,86.4
2017-03-25T02:42:33.880Z,85.8
2017-03-25T02:43:35.683Z,85.9
2017-03-25T02:44:37.487Z,86.1
2017-03-25T02:45:39.279Z,85.4
2017-03-25T02:46:41.085Z,84.9
2017-03-25T02:47:43.223Z,84.6
2017-03-25T02:48:45.023Z,85.2
2017-03-25T02:49:47.158Z,85.3
2017-03-25T02:50:48.967Z,85.5
2017-03-25T02:51:51.110Z,85.6
2017-03-25T02:52:52.907Z,86
2017-03-25T02:53:54.704Z,86.2
2017-03-25T02:54:57.005Z,86.8
2017-03-25T02:55:58.975Z,86
2017-03-25T02:57:00.910Z,86.7
2017-03-25T02:58:02.732Z,86.9
2017-03-25T02:59:05.571Z,86.3
2017-03-25T03:00:07.362Z,85.9
2017-03-25T03:01:09.196Z,85.7
2017-03-25T03:02:11.339Z,84.7
2017-03-25T03:03:13.809Z,84.6
2017-03-25T03:04:15.947Z,83.9
2017-03-25T03:05:17.745Z,84.1
2017-03-25T03:06:19.551Z,85.2
2017-03-25T03:07:21.344Z,84.9
2017-03-25T03:08:23.150Z,85.4
2017-03-25T03:09:24.965Z,86.5
2017-03-25T03:10:27.102Z,86.6
2017-03-25T03:11:28.953Z,87.1
2017-03-25T03:12:31.115Z,86.7
2017-03-25T03:13:33.615Z,86.5
2017-03-25T03:14:35.757Z,86.7
2017-03-25T03:15:37.572Z,86.8
2017-03-25T03:16:39.371Z,86.6
2017-03-25T03:17:41.174Z,86.5
2017-03-25T03:18:43.329Z,86
2017-03-25T03:19:45.125Z,86.3
2017-03-25T03:20:46.928Z,85.9
2017-03-25T03:21:48.728Z,86.2
2017-03-25T03:22:50.526Z,86
2017-03-25T03:23:52.673Z,85.9
2017-03-25T03:24:54.468Z,86.4
2017-03-25T03:25:56.274Z,86.3
2017-03-25T03:26:58.073Z,87.2
2017-03-25T03:27:59.887Z,86.4
2017-03-25T03:29:01.690Z,86.5
2017-03-25T03:30:03.496Z,86.6
2017-03-25T03:31:05.644Z,87.3
2017-03-25T03:32:07.447Z,87.3
2017-03-25T03:33:09.251Z,87.8
2017-03-25T03:34:11.052Z,87.8
2017-03-25T03:35:12.848Z,88
2017-03-25T03:36:14.649Z,88.5
2017-03-25T03:37:16.453Z,88.2
2017-03-25T03:38:18.596Z,88.4
2017-03-25T03:39:20.776Z,89.1
2017-03-25T03:40:22.925Z,89.2
2017-03-25T03:41:24.766Z,89.5
2017-03-25T03:42:26.726Z,89.5
2017-03-25T03:43:28.798Z,89.8
2017-03-25T03:44:30.590Z,89.8
2017-03-25T03:45:32.401Z,90
2017-03-25T03:46:34.198Z,90.2
2017-03-25T03:47:36.053Z,90.5
2017-03-25T03:48:38.193Z,90.8
2017-03-25T03:49:40.336Z,90.9
2017-03-25T03:50:42.488Z,91.4
2017-03-25T03:51:44.627Z,91.3
2017-03-25T03:52:46.819Z,91.2
2017-03-25T03:53:48.624Z,91.2
2017-03-25T03:54:50.759Z,90.9
2017-03-25T03:55:52.563Z,90.6
2017-03-25T03:56:54.362Z,89.5
2017-03-25T03:57:56.166Z,88.9
2017-03-25T03:58:57.966Z,89.1
2017-03-25T03:59:59.771Z,89
2017-03-25T04:01:01.582Z,89.3
2017-03-25T04:02:03.382Z,89.6
2017-03-25T04:03:05.186Z,89.4
2017-03-25T04:04:06.986Z,87.7
2017-03-25T04:05:08.780Z,87.8
2017-03-25T04:06:10.580Z,88.3
2017-03-25T04:07:12.378Z,87
2017-03-25T04:08:14.183Z,87.1
2017-03-25T04:09:16.342Z,87.9
2017-03-25T04:10:18.136Z,88.5
2017-03-25T04:11:19.947Z,88.9
2017-03-25T04:12:21.737Z,89.1
2017-03-25T04:13:23.883Z,89.1
2017-03-25T04:14:25.685Z,89.1
2017-03-25T04:15:27.487Z,89.1
2017-03-25T04:16:29.619Z,88
2017-03-25T04:17:31.457Z,88.1
2017-03-25T04:18:33.606Z,88.5
2017-03-25T04:19:35.756Z,88.6
2017-03-25T04:20:37.549Z,88.9
2017-03-25T04:21:39.692Z,89.2
2017-03-25T04:22:41.490Z,89.2
2017-03-25T04:23:43.641Z,89.4
2017-03-25T04:24:45.441Z,89.5
2017-03-25T04:25:47.232Z,90.2
2017-03-25T04:26:49.029Z,90
2017-03-25T04:27:51.162Z,90.6
2017-03-25T04:28:52.968Z,90.6
2017-03-25T04:29:55.102Z,90.5
2017-03-25T04:30:57.246Z,90.6
2017-03-25T04:31:59.041Z,90.8
2017-03-25T04:33:00.839Z,91
2017-03-25T04:34:02.640Z,90.6
2017-03-25T04:35:04.791Z,90.2
2017-03-25T04:36:06.594Z,90.3
2017-03-25T04:37:08.395Z,90.4
2017-03-25T04:38:10.201Z,90.1
2017-03-25T04:39:11.992Z,89.6
2017-03-25T04:40:13.790Z,89.5
2017-03-25T04:41:15.590Z,89.7
2017-03-25T04:42:17.396Z,89.7
2017-03-25T04:43:19.529Z,89.9
2017-03-25T04:44:21.329Z,90.1
2017-03-25T04:45:23.135Z,89.9
2017-03-25T04:46:24.938Z,90.2
2017-03-25T04:47:26.737Z,90.4
2017-03-25T04:48:28.538Z,90.4
2017-03-25T04:49:30.343Z,90.8
2017-03-25T04:50:32.173Z,90.8
2017-03-25T04:51:33.976Z,90.9
2017-03-25T04:52:35.777Z,91
2017-03-25T04:53:37.575Z,91.3
2017-03-25T04:54:39.389Z,91.3
2017-03-25T04:55:41.527Z,91.2
2017-03-25T04:56:43.329Z,91.1
2017-03-25T04:57:45.799Z,91.2
2017-03-25T04:58:47.941Z,91.3
2017-03-25T04:59:49.752Z,91.4
2017-03-25T05:00:51.896Z,91.4
2017-03-25T05:01:53.689Z,91.4
2017-03-25T05:02:55.500Z,91.5
2017-03-25T05:03:58.038Z,91
2017-03-25T05:05:00.190Z,91.2
2017-03-25T05:06:02.344Z,91.4
2017-03-25T05:07:04.144Z,91.4
2017-03-25T05:08:05.943Z,91.5
2017-03-25T05:09:07.742Z,90.9
2017-03-25T05:10:09.543Z,90.9
2017-03-25T05:11:11.340Z,89.9
2017-03-25T05:12:13.471Z,90.1
2017-03-25T05:13:15.267Z,89.9
2017-03-25T05:14:17.402Z,89.9
2017-03-25T05:15:19.199Z,90.1
2017-03-25T05:16:21.342Z,90.2
2017-03-25T05:17:23.143Z,90.5
2017-03-25T05:18:24.935Z,90.5
2017-03-25T05:19:27.142Z,90.7
2017-03-25T05:20:29.273Z,90.8
2017-03-25T05:21:31.069Z,90.9
2017-03-25T05:22:32.865Z,90.2
2017-03-25T05:23:34.678Z,90.1
2017-03-25T05:24:37.149Z,90
2017-03-25T05:25:38.953Z,90.1
2017-03-25T05:26:40.752Z,90
2017-03-25T05:27:42.549Z,89.6
2017-03-25T05:28:44.689Z,89.8
2017-03-25T05:29:46.864Z,89.9
2017-03-25T05:30:49.034Z,90.2
2017-03-25T05:31:50.875Z,90.5
2017-03-25T05:32:53.027Z,90.8
2017-03-25T05:33:54.852Z,90.6
2017-03-25T05:34:57.004Z,89.6
2017-03-25T05:35:59.147Z,90
2017-03-25T05:37:01.020Z,90.2
2017-03-25T05:38:02.831Z,90.7
2017-03-25T05:39:05.078Z,91
2017-03-25T05:40:06.881Z,90.7
2017-03-25T05:41:08.683Z,90
2017-03-25T05:42:10.497Z,89.2
2017-03-25T05:43:12.288Z,88.1
2017-03-25T05:44:14.090Z,86.2
2017-03-25T05:45:15.933Z,85.8
2017-03-25T05:46:17.739Z,85.2
2017-03-25T05:47:19.560Z,84.7
2017-03-25T05:48:21.414Z,84.6
2017-03-25T05:49:23.326Z,84.2
2017-03-25T05:50:25.122Z,84.5
2017-03-25T05:51:26.929Z,85.3
2017-03-25T05:52:29.063Z,85.5
2017-03-25T05:53:30.863Z,85.5
2017-03-25T05:54:32.776Z,86.2
2017-03-25T05:55:34.582Z,86.3
2017-03-25T05:56:36.450Z,86.3
2017-03-25T05:57:38.700Z,86.3
2017-03-25T05:58:40.842Z,86.2
2017-03-25T05:59:42.677Z,86
2017-03-25T06:00:44.825Z,85.6
2017-03-25T06:01:46.619Z,86.1
2017-03-25T06:02:48.514Z,86.1
2017-03-25T06:03:50.998Z,86.3
2017-03-25T06:04:52.829Z,86.4
2017-03-25T06:05:54.642Z,86.5
2017-03-25T06:06:56.445Z,86.5
2017-03-25T06:07:58.373Z,86.8
2017-03-25T06:09:00.180Z,86.8
2017-03-25T06:10:02.717Z,87.4
2017-03-25T06:11:04.879Z,87.7
2017-03-25T06:12:06.689Z,87.6
2017-03-25T06:13:08.689Z,87.7
2017-03-25T06:14:11.182Z,87.9
2017-03-25T06:15:13.421Z,88.2
2017-03-25T06:16:15.238Z,88.7
2017-03-25T06:17:17.377Z,89.1
2017-03-25T06:18:19.186Z,90.1
2017-03-25T06:19:20.992Z,90.2
2017-03-25T06:20:23.131Z,90.1
2017-03-25T06:21:24.972Z,89.7
2017-03-25T06:22:26.781Z,89.8
2017-03-25T06:23:28.588Z,89.8
2017-03-25T06:24:30.711Z,89.6
2017-03-25T06:25:32.522Z,89.7
2017-03-25T06:26:34.673Z,89.8
2017-03-25T06:27:36.478Z,89.8
2017-03-25T06:28:38.274Z,89.2
2017-03-25T06:29:40.073Z,85.4
2017-03-25T06:30:41.885Z,86
2017-03-25T06:31:43.769Z,86.6
2017-03-25T06:32:45.558Z,87.9
2017-03-25T06:33:48.041Z,87.7
2017-03-25T06:34:50.860Z,86.6
2017-03-25T06:35:52.673Z,83.6
2017-03-25T06:36:54.472Z,84.8
2017-03-25T06:37:56.267Z,84.8
2017-03-25T06:38:58.071Z,84.5
2017-03-25T06:39:59.879Z,84.8
2017-03-25T06:41:02.023Z,82.4
2017-03-25T06:42:04.160Z,82.7
2017-03-25T06:43:06.314Z,84.1
2017-03-25T06:44:08.120Z,84.6
2017-03-25T06:45:09.927Z,84.2
2017-03-25T06:46:12.426Z,86.8
2017-03-25T06:47:14.216Z,87.2
2017-03-25T06:48:16.026Z,85.7
2017-03-25T06:49:17.835Z,85.1
2017-03-25T06:50:19.976Z,84.9
2017-03-25T06:51:21.777Z,81.7
2017-03-25T06:52:23.581Z,82
2017-03-25T06:53:25.389Z,83.6
2017-03-25T06:54:27.564Z,84
2017-03-25T06:55:29.448Z,81.6
2017-03-25T06:56:31.247Z,80.6
2017-03-25T06:57:33.057Z,78.4
2017-03-25T06:58:35.884Z,79.9
2017-03-25T06:59:37.682Z,80.5
2017-03-25T07:00:39.479Z,79.2
2017-03-25T07:01:41.285Z,80.2
2017-03-25T07:02:43.771Z,79.9
2017-03-25T07:03:45.920Z,78.1
2017-03-25T07:04:47.730Z,78.2
2017-03-25T07:05:49.523Z,77.6
2017-03-25T07:06:51.330Z,76.7
2017-03-25T07:07:53.810Z,75
2017-03-25T07:08:55.947Z,74.6
2017-03-25T07:09:57.748Z,76.2
2017-03-25T07:10:59.566Z,75.3
2017-03-25T07:12:01.368Z,75.5
2017-03-25T07:13:03.505Z,74.7
2017-03-25T07:14:05.306Z,72.4
2017-03-25T07:15:07.452Z,72.5
2017-03-25T07:16:09.255Z,73.4
2017-03-25T07:17:11.073Z,72.5
2017-03-25T07:18:12.867Z,71.3
2017-03-25T07:19:14.673Z,70.8
2017-03-25T07:20:16.476Z,70.4
2017-03-25T07:21:18.612Z,70.9
2017-03-25T07:22:20.414Z,69.9
2017-03-25T07:23:22.558Z,70
2017-03-25T07:24:24.356Z,71.4
2017-03-25T07:25:26.160Z,70.5
2017-03-25T07:26:27.971Z,70.4
2017-03-25T07:27:30.447Z,70.3
2017-03-25T07:28:32.588Z,70.3
2017-03-25T07:29:34.390Z,69.6
2017-03-25T07:30:36.201Z,70.3
2017-03-25T07:31:38.023Z,69.7
2017-03-25T07:32:39.818Z,69
2017-03-25T07:33:41.617Z,69.1
2017-03-25T07:34:43.423Z,68.3
2017-03-25T07:35:45.233Z,68
2017-03-25T07:36:47.375Z,69.1
2017-03-25T07:37:49.508Z,69.5
2017-03-25T07:38:51.307Z,69.4
2017-03-25T07:39:53.107Z,69.4
2017-03-25T07:40:55.257Z,69.6
2017-03-25T07:41:57.400Z,70.5
2017-03-25T07:42:59.532Z,71.3
2017-03-25T07:44:01.339Z,71.3
2017-03-25T07:45:03.150Z,71.5
2017-03-25T07:46:04.951Z,70.5
2017-03-25T07:47:07.429Z,70.2
2017-03-25T07:48:09.229Z,68.5
2017-03-25T07:49:11.370Z,68.7
2017-03-25T07:50:13.170Z,69.7
2017-03-25T07:51:15.322Z,69.5
2017-03-25T07:52:17.458Z,70
2017-03-25T07:57:17.712Z,67.9
2017-03-25T07:58:19.563Z,66.9
2017-03-25T07:59:21.789Z,66.9
2017-03-25T08:00:23.634Z,67.1
2017-03-25T08:01:25.493Z,66.2
2017-03-25T08:02:27.345Z,65.4
2017-03-25T08:03:29.212Z,64
2017-03-25T08:04:31.071Z,63.6
2017-03-25T08:05:32.920Z,64.9
2017-03-25T08:06:34.773Z,64.7
2017-03-25T08:07:36.634Z,64.7
2017-03-25T08:08:38.830Z,65.1
2017-03-25T08:09:40.692Z,63.6
2017-03-25T08:10:42.579Z,63.5
2017-03-25T08:11:44.835Z,62.7
2017-03-25T08:12:47.168Z,62.8
2017-03-25T08:13:49.057Z,61.4
2017-03-25T08:14:51.308Z,62.7
2017-03-25T08:15:53.182Z,62.5
2017-03-25T08:16:55.190Z,61.4
2017-03-25T08:17:57.117Z,61.1
2017-03-25T08:18:59.131Z,61.6
2017-03-25T08:20:00.994Z,62.7
2017-03-25T08:21:03.256Z,61.2
2017-03-25T08:22:05.311Z,61.2
2017-03-25T08:23:07.318Z,60.3
2017-03-25T08:24:09.304Z,60.3
2017-03-25T08:25:11.251Z,60.1
2017-03-25T08:26:13.658Z,59.7
2017-03-25T08:27:15.878Z,60.1
2017-03-25T08:28:17.915Z,61.1
2017-03-25T08:29:19.958Z,59.9
2017-03-25T08:30:22.183Z,59.6
2017-03-25T08:31:24.087Z,59.6
2017-03-25T08:32:26.369Z,59.6
2017-03-25T08:33:28.377Z,60.5
2017-03-25T08:34:30.502Z,59.5
2017-03-25T08:35:32.563Z,59.2
2017-03-25T08:36:34.464Z,59.8
2017-03-25T08:37:36.407Z,59.2
2017-03-25T08:38:38.429Z,59
2017-03-25T08:39:40.349Z,57.7
2017-03-25T08:40:42.742Z,57.9
2017-03-25T08:41:44.679Z,58.1
2017-03-25T08:42:46.647Z,58.9
2017-03-25T08:43:48.941Z,58.6
2017-03-25T08:44:50.845Z,58.6
2017-03-25T08:45:52.782Z,58.7
2017-03-25T08:46:55.057Z,57.7
2017-03-25T08:47:57.035Z,56.7
2017-03-25T08:48:59.110Z,56.7
2017-03-25T08:50:01.115Z,57.4
2017-03-25T08:51:03.147Z,58.1
2017-03-25T08:52:05.548Z,56.7
2017-03-25T08:53:07.475Z,56.1
2017-03-25T08:54:09.794Z,56.4
2017-03-25T08:55:11.871Z,57.4
2017-03-25T08:56:13.893Z,58.1
2017-03-25T08:57:15.875Z,56.9
2017-03-25T08:58:18.419Z,56.5
2017-03-25T08:59:20.432Z,56.8
2017-03-25T09:00:22.434Z,57.8
2017-03-25T09:01:24.370Z,56.8
2017-03-25T09:02:26.403Z,58.1
2017-03-25T09:03:28.685Z,58
2017-03-25T09:04:30.812Z,57.6
2017-03-25T09:05:33.028Z,57.8
2017-03-25T09:06:35.645Z,57.5
2017-03-25T09:07:37.845Z,58.1
2017-03-25T09:08:39.925Z,58.4
2017-03-25T09:09:42.277Z,58.4
2017-03-25T09:10:44.435Z,59.4
2017-03-25T09:11:46.622Z,59.7
2017-03-25T09:12:48.684Z,59.2
2017-03-25T09:13:50.628Z,58.9
2017-03-25T09:14:52.620Z,59.5
2017-03-25T09:15:54.901Z,59.4
2017-03-25T09:16:57.008Z,59.6
2017-03-25T09:17:59.387Z,58.6
2017-03-25T09:19:01.299Z,59.1
2017-03-25T09:20:03.366Z,58.4
2017-03-25T09:21:05.285Z,58.6
2017-03-25T09:22:07.696Z,59.1
2017-03-25T09:23:09.686Z,58.6
2017-03-25T09:24:12.037Z,59.2
2017-03-25T09:25:14.041Z,59.4
2017-03-25T09:26:16.003Z,58.5
2017-03-25T09:27:18.008Z,58
2017-03-25T09:28:20.334Z,57
2017-03-25T09:29:22.383Z,57.9
2017-03-25T09:30:24.801Z,57.4
2017-03-25T09:31:26.792Z,57.7
2017-03-25T09:32:28.780Z,57.8
2017-03-25T09:33:30.824Z,57.5
2017-03-25T09:34:33.016Z,57.9
2017-03-25T09:35:35.507Z,57.3
2017-03-25T09:36:37.749Z,57.4
2017-03-25T09:37:39.989Z,56.9
2017-03-25T09:38:42.274Z,57.5
2017-03-25T09:39:44.338Z,57.6
2017-03-25T09:40:46.637Z,58.6
2017-03-25T09:41:49.278Z,57.9
2017-03-25T09:42:51.846Z,59.1
2017-03-25T09:43:54.019Z,57.8
2017-03-25T09:44:56.653Z,58.5
2017-03-25T09:45:58.880Z,58.8
2017-03-25T09:47:00.809Z,57.7
2017-03-25T09:48:03.080Z,58.9
2017-03-25T09:49:05.442Z,57.6
2017-03-25T09:50:07.384Z,57.7
2017-03-25T09:51:09.715Z,58
2017-03-25T09:52:11.680Z,58
2017-03-25T09:53:13.550Z,58.1
2017-03-25T09:54:15.777Z,58.1
2017-03-25T09:55:17.635Z,58.2
2017-03-25T09:56:19.504Z,58.6
2017-03-25T09:57:21.706Z,58.5
2017-03-25T09:58:23.583Z,58.5
2017-03-25T09:59:25.785Z,58.6
2017-03-25T10:00:27.994Z,59
2017-03-25T10:01:29.850Z,58.9
2017-03-25T10:02:32.054Z,57.6
2017-03-25T10:03:35.279Z,58.7
2017-03-25T10:04:37.143Z,58.3
2017-03-25T10:05:39.334Z,57.7
2017-03-25T10:06:41.188Z,56.7
2017-03-25T10:07:43.398Z,56.5
2017-03-25T10:08:45.283Z,56.7
2017-03-25T10:09:47.570Z,56.1
2017-03-25T10:10:49.622Z,56.9
2017-03-25T10:11:52.019Z,56.4
2017-03-25T10:12:54.739Z,56.1
2017-03-25T10:13:57.349Z,55.8
2017-03-25T10:14:59.288Z,55.5
2017-03-25T10:16:01.281Z,56.3
2017-03-25T10:17:03.204Z,55.3
2017-03-25T10:18:05.158Z,55.2
2017-03-25T10:19:07.119Z,54.7
2017-03-25T10:20:09.321Z,54.6
2017-03-25T10:21:11.215Z,55.1
2017-03-25T10:22:13.084Z,56.1
2017-03-25T10:23:15.303Z,56.4
2017-03-25T10:24:17.187Z,55.9
2017-03-25T10:25:19.055Z,56
2017-03-25T10:26:20.967Z,56.9
2017-03-25T10:27:23.176Z,57.1
2017-03-25T10:28:25.372Z,58
2017-03-25T10:29:27.249Z,58.2
2017-03-25T10:30:29.120Z,56.8
2017-03-25T10:31:30.985Z,56.2
2017-03-25T10:32:32.835Z,56.1
2017-03-25T10:33:34.704Z,54.7
2017-03-25T10:34:36.738Z,55.3
2017-03-25T10:35:38.781Z,55.3
2017-03-25T10:36:40.644Z,54.7
2017-03-25T10:37:42.521Z,53.9
2017-03-25T10:38:44.387Z,54.2
2017-03-25T10:39:46.257Z,54.1
2017-03-25T10:40:48.449Z,54
2017-03-25T10:41:50.642Z,54.5
2017-03-25T10:42:52.518Z,53.1
2017-03-25T10:43:54.397Z,52.8
2017-03-25T10:44:56.258Z,52.5
2017-03-25T10:45:58.128Z,52.5
2017-03-25T10:46:59.995Z,54
2017-03-25T10:48:02.195Z,54.1
2017-03-25T10:49:04.065Z,54.9
2017-03-25T10:50:05.992Z,54.2
2017-03-25T10:51:07.862Z,53.6
2017-03-25T10:52:09.893Z,54.4
2017-03-25T10:53:11.776Z,53.8
2017-03-25T10:54:13.630Z,54.6
2017-03-25T10:55:15.848Z,53.6
2017-03-25T10:56:17.714Z,54.8
2017-03-25T10:57:19.581Z,54.8
2017-03-25T10:58:21.451Z,53.1
2017-03-25T10:59:23.333Z,54.1
2017-03-25T11:00:25.217Z,54.6
2017-03-25T11:01:27.091Z,54.3
2017-03-25T11:02:28.964Z,53.6
2017-03-25T11:03:31.298Z,54
2017-03-25T11:04:34.317Z,54.4
2017-03-25T11:05:36.196Z,54.8
2017-03-25T11:06:38.235Z,53.5
2017-03-25T11:07:40.107Z,53
2017-03-25T11:08:41.991Z,54
2017-03-25T11:09:43.851Z,52.8
2017-03-25T11:10:45.716Z,54.2
2017-03-25T11:11:47.634Z,53.8
2017-03-25T11:12:49.700Z,52.9
2017-03-25T11:13:51.959Z,53.1
2017-03-25T11:14:53.993Z,52.9
2017-03-25T11:15:55.866Z,53.8
2017-03-25T11:16:57.739Z,54.3
2017-03-25T11:17:59.944Z,54.9
2017-03-25T11:19:02.504Z,56.7
2017-03-25T11:20:04.370Z,56.1
2017-03-25T11:21:06.577Z,55.3
2017-03-25T11:22:08.452Z,55.3
2017-03-25T11:23:10.322Z,55.2
2017-03-25T11:24:12.190Z,54.7
2017-03-25T11:25:14.071Z,54.7
2017-03-25T11:26:15.950Z,55.9
2017-03-25T11:27:18.155Z,55.9
2017-03-25T11:28:20.368Z,56.4
2017-03-25T11:29:22.242Z,57.3
2017-03-25T11:30:24.219Z,56.6
2017-03-25T11:31:26.071Z,56.2
2017-03-25T11:32:27.946Z,55.2
2017-03-25T11:33:29.820Z,56.6
2017-03-25T11:34:31.704Z,55.4
2017-03-25T11:35:33.571Z,55.4
2017-03-25T11:36:35.790Z,55.9
2017-03-25T11:37:38.009Z,55.9
2017-03-25T11:38:39.906Z,55.6
2017-03-25T11:39:41.777Z,56.5
2017-03-25T11:40:43.642Z,56.7
2017-03-25T11:41:45.663Z,56.2
2017-03-25T11:42:47.919Z,55
2017-03-25T11:43:49.953Z,56.1
2017-03-25T11:44:52.171Z,56.7
2017-03-25T11:45:54.127Z,57
2017-03-25T11:46:56.166Z,56.9
2017-03-25T11:47:58.235Z,55.9
2017-03-25T11:49:00.205Z,55.1
2017-03-25T11:50:02.584Z,54.8
2017-03-25T11:51:04.503Z,53.9
2017-03-25T11:52:06.480Z,53.2
2017-03-25T11:53:09.040Z,53.8
2017-03-25T11:54:10.908Z,54
2017-03-25T11:55:13.153Z,53.8
2017-03-25T11:56:15.033Z,56.1
2017-03-25T11:57:16.904Z,53.9
2017-03-25T11:58:18.774Z,54.8
2017-03-25T11:59:21.009Z,57.1
2017-03-25T12:00:22.876Z,59.1
2017-03-25T12:01:24.742Z,59.2
2017-03-25T12:02:26.597Z,58.7
2017-03-25T12:03:28.468Z,59.6
2017-03-25T12:04:30.349Z,59.2
2017-03-25T12:05:32.270Z,59.8
2017-03-25T12:06:34.149Z,62.2
2017-03-25T12:07:36.374Z,61
2017-03-25T12:08:38.245Z,62.4
2017-03-25T12:09:40.116Z,62.8
2017-03-25T12:10:42.374Z,61.9
2017-03-25T12:11:44.589Z,61.6
2017-03-25T12:12:46.480Z,61.5
2017-03-25T12:13:48.360Z,61.2
2017-03-25T12:14:50.250Z,60.7
2017-03-25T12:15:52.112Z,59.5
2017-03-25T12:16:54.065Z,59.4
2017-03-25T12:17:56.017Z,59.7
2017-03-25T12:18:57.959Z,58.7
2017-03-25T12:19:59.834Z,59.1
2017-03-25T12:21:02.035Z,58.5
2017-03-25T12:22:03.903Z,58.5
2017-03-25T12:23:06.453Z,57.3
2017-03-25T12:24:08.381Z,57.2
2017-03-25T12:25:10.257Z,57
2017-03-25T12:26:12.122Z,55.5
2017-03-25T12:27:13.989Z,55.3
2017-03-25T12:28:15.855Z,56.1
2017-03-25T12:29:17.727Z,54.3
2017-03-25T12:30:19.598Z,53.9
2017-03-25T12:31:21.458Z,53.8
2017-03-25T12:32:23.841Z,53.8
2017-03-25T12:33:25.883Z,52.9
2017-03-25T12:34:27.863Z,53.6
2017-03-25T12:35:29.787Z,53.9
2017-03-25T12:36:31.775Z,53.5
2017-03-25T12:37:33.986Z,52.3
2017-03-25T12:38:35.877Z,53.2
2017-03-25T12:39:37.759Z,54
2017-03-25T12:40:39.626Z,53.2
2017-03-25T12:41:41.506Z,56.9
2017-03-25T12:42:43.377Z,56.2
2017-03-25T12:43:45.937Z,55.7
2017-03-25T12:44:47.804Z,56.2
2017-03-25T12:45:49.674Z,56
2017-03-25T12:46:51.891Z,55.5
2017-03-25T12:47:54.150Z,54.6
2017-03-25T12:48:56.017Z,54.7
2017-03-25T12:49:58.004Z,56
2017-03-25T12:51:00.110Z,56.6
2017-03-25T12:52:02.439Z,56.8
2017-03-25T12:53:04.636Z,54.9
2017-03-25T12:54:06.594Z,54.1
2017-03-25T12:55:08.467Z,54.2
2017-03-25T12:56:10.332Z,54.3
2017-03-25T12:57:12.202Z,54.4
2017-03-25T12:58:14.421Z,54.2
2017-03-25T12:59:16.651Z,53.6
2017-03-25T13:00:18.531Z,54
2017-03-25T13:01:20.396Z,55.1
2017-03-25T13:02:22.263Z,54.3
2017-03-25T13:03:24.137Z,54.1
2017-03-25T13:04:26.188Z,53.2
2017-03-25T13:05:28.240Z,53.3
2017-03-25T13:06:30.107Z,54.1
2017-03-25T13:07:31.980Z,53.1
2017-03-25T13:08:34.548Z,52.5
2017-03-25T13:09:36.418Z,52.5
2017-03-25T13:10:38.291Z,53.2
2017-03-25T13:11:40.500Z,52.4
2017-03-25T13:12:42.711Z,52.1
2017-03-25T13:13:44.924Z,52.1
2017-03-25T13:14:46.787Z,51.7
2017-03-25T13:15:48.652Z,50.5
2017-03-25T13:16:50.518Z,50.5
2017-03-25T13:17:52.724Z,50.8
2017-03-25T13:18:54.604Z,50.1
2017-03-25T13:19:56.472Z,49.5
2017-03-25T13:20:58.342Z,50
2017-03-25T13:22:00.199Z,50.2
2017-03-25T13:23:02.084Z,50
2017-03-25T13:24:04.295Z,49.1
2017-03-25T13:25:06.524Z,50.6
2017-03-25T13:26:08.728Z,50.4
2017-03-25T13:27:10.598Z,51.4
2017-03-25T13:28:12.476Z,50.8
2017-03-25T13:29:14.352Z,51.3
2017-03-25T13:30:16.222Z,51.1
2017-03-25T13:31:18.439Z,51.3
2017-03-25T13:32:20.347Z,50.1
2017-03-25T13:33:22.563Z,50.1
2017-03-25T13:34:24.767Z,49.8
2017-03-25T13:35:26.625Z,48.7
2017-03-25T13:36:28.492Z,47.3
2017-03-25T13:37:30.361Z,48.9
2017-03-25T13:38:32.240Z,48.6
2017-03-25T13:39:34.794Z,48
2017-03-25T13:40:36.660Z,48.4
2017-03-25T13:41:38.533Z,48.4
2017-03-25T13:42:40.408Z,47.2
2017-03-25T13:43:42.262Z,47.8
2017-03-25T13:44:44.179Z,46.8
2017-03-25T13:45:46.054Z,47.1
2017-03-25T13:46:48.297Z,47.5
2017-03-25T13:47:50.512Z,48.3
2017-03-25T13:48:52.375Z,48
2017-03-25T13:49:54.585Z,48.5
2017-03-25T13:50:56.458Z,47.4
2017-03-25T13:51:58.340Z,47
2017-03-25T13:53:00.206Z,47.1
2017-03-25T13:54:02.082Z,46.6